Time;durP1;ratioP1;P1;durP2;ratioP2;P2;SDS_P1;SDS_P2;PMS_P1;PMS_P2;Temp;Humidity;BMP_temperature;BMP_pressure;BME280_temperature;BME280_humidity;BME280_pressure;Samples;Min_cycle;Max_cycle;Signal;HPM_P1;HPM_P2
2022/08/30 00:02:17;;;;;;;11.88;8.45;;;;;;;;;;5081320;27;20230;-66
2022/08/30 00:04:44;;;;;;;9.55;8.10;;;;;;;;;;5112235;27;20295;-66
2022/08/30 00:07:12;;;;;;;9.35;8.38;;;;;;;;;;5104227;27;20207;-66
2022/08/30 00:09:39;;;;;;;9.23;8.32;;;;;;;;;;5106031;27;20200;-66
2022/08/30 00:12:07;;;;;;;10.25;7.93;;;;;;;;;;5111289;27;20231;-66
2022/08/30 00:14:35;;;;;;;9.82;8.18;;;;;;;;;;5109878;27;20207;-65
2022/08/30 00:17:02;;;;;;;9.48;7.57;;;;;;;;;;5101342;27;20227;-66
2022/08/30 00:19:31;;;;;;;10.48;8.05;;;;;;;;;;5120071;27;20207;-66
2022/08/30 00:21:58;;;;;;;9.27;8.38;;;;;;;;;;5115474;27;20224;-65
2022/08/30 00:24:25;;;;;;;8.95;8.05;;;;;;;;;;5117521;27;20233;-66
2022/08/30 00:26:53;;;;;;;9.60;8.60;;;;;;;;;;5118128;27;20207;-67
2022/08/30 00:29:21;;;;;;;9.38;8.40;;;;;;;;;;5123109;27;20200;-66
2022/08/30 00:31:48;;;;;;;8.93;8.00;;;;;;;;;;5106475;27;20227;-66
2022/08/30 00:34:15;;;;;;;9.40;8.48;;;;;;;;;;5108310;27;20216;-67
2022/08/30 00:36:44;;;;;;;10.63;8.18;;;;;;;;;;5104411;27;20223;-66
2022/08/30 00:39:11;;;;;;;12.05;8.20;;;;;;;;;;5104769;27;20200;-66
2022/08/30 00:41:39;;;;;;;10.45;8.45;;;;;;;;;;5138779;27;20215;-68
2022/08/30 00:44:07;;;;;;;11.98;9.15;;;;;;;;;;5129865;27;20208;-67
2022/08/30 00:46:34;;;;;;;9.38;8.07;;;;;;;;;;5122377;27;20226;-66
2022/08/30 00:49:04;;;;;;;9.55;8.07;;;;;;;;;;5103433;27;20741;-66
2022/08/30 00:51:32;;;;;;;10.88;8.30;;;;;;;;;;5107293;27;20745;-67
2022/08/30 00:54:00;;;;;;;10.57;8.82;;;;;;;;;;5100094;27;20204;-66
2022/08/30 00:56:28;;;;;;;9.70;8.70;;;;;;;;;;5099947;27;20303;-67
2022/08/30 00:58:57;;;;;;;10.95;8.82;;;;;;;;;;5100652;27;20204;-67
2022/08/30 01:01:25;;;;;;;13.10;9.68;;;;;;;;;;5113585;27;20219;-66
2022/08/30 01:03:52;;;;;;;10.20;9.15;;;;;;;;;;5098337;27;20248;-65
2022/08/30 01:06:20;;;;;;;10.43;9.43;;;;;;;;;;5115815;27;20208;-68
2022/08/30 01:08:47;;;;;;;13.40;9.30;;;;;;;;;;5100263;27;20208;-66
2022/08/30 01:11:17;;;;;;;11.27;9.77;;;;;;;;;;5109561;27;20234;-68
2022/08/30 01:13:48;;;;;;;11.13;9.98;;;;;;;;;;5092700;27;20238;-68
2022/08/30 01:16:16;;;;;;;12.45;9.63;;;;;;;;;;5100385;27;20223;-65
2022/08/30 01:18:46;;;;;;;10.80;9.70;;;;;;;;;;5105081;27;20205;-67
2022/08/30 01:21:21;;;;;;;11.57;9.73;;;;;;;;;;5102820;27;20289;-65
2022/08/30 01:23:49;;;;;;;11.38;9.82;;;;;;;;;;5107383;27;20202;-66
2022/08/30 01:26:17;;;;;;;10.80;9.77;;;;;;;;;;5120451;27;20339;-66
2022/08/30 01:28:51;;;;;;;10.73;8.90;;;;;;;;;;5103658;27;20213;-66
2022/08/30 01:31:19;;;;;;;10.73;9.60;;;;;;;;;;5107841;27;20306;-66
2022/08/30 01:33:46;;;;;;;10.95;9.02;;;;;;;;;;5103132;27;20672;-67
2022/08/30 01:36:14;;;;;;;11.38;9.82;;;;;;;;;;5098045;27;20227;-65
2022/08/30 01:38:44;;;;;;;9.68;8.75;;;;;;;;;;5104577;27;20207;-68
2022/08/30 01:41:16;;;;;;;10.23;9.18;;;;;;;;;;5105725;27;20695;-66
2022/08/30 01:43:44;;;;;;;9.82;8.93;;;;;;;;;;5097939;27;20204;-67
2022/08/30 01:46:11;;;;;;;10.63;9.52;;;;;;;;;;5110203;27;20222;-65
2022/08/30 01:48:40;;;;;;;10.65;9.55;;;;;;;;;;5108992;27;20574;-66
2022/08/30 01:51:17;;;;;;;10.20;9.07;;;;;;;;;;5112340;27;20654;-67
2022/08/30 01:53:44;;;;;;;10.65;9.55;;;;;;;;;;5129505;27;20199;-67
2022/08/30 01:56:13;;;;;;;10.68;9.60;;;;;;;;;;5098046;27;20620;-65
2022/08/30 01:58:43;;;;;;;10.75;9.75;;;;;;;;;;5095954;27;20684;-67
2022/08/30 02:01:12;;;;;;;10.30;9.40;;;;;;;;;;5102042;27;20276;-66
2022/08/30 02:03:42;;;;;;;10.63;9.63;;;;;;;;;;5108432;27;20203;-65
2022/08/30 02:06:10;;;;;;;11.00;9.82;;;;;;;;;;5108984;27;20569;-67
2022/08/30 02:08:41;;;;;;;12.52;10.48;;;;;;;;;;5106095;27;20204;-66
2022/08/30 02:11:09;;;;;;;11.05;10.00;;;;;;;;;;5102299;27;20716;-66
2022/08/30 02:13:37;;;;;;;10.43;9.43;;;;;;;;;;5096164;27;20272;-68
2022/08/30 02:16:06;;;;;;;11.07;9.95;;;;;;;;;;5105078;27;20191;-66
2022/08/30 02:18:34;;;;;;;10.27;9.27;;;;;;;;;;5114298;27;20203;-66
2022/08/30 02:21:02;;;;;;;12.98;9.68;;;;;;;;;;5104627;27;20227;-66
2022/08/30 02:23:30;;;;;;;10.85;9.85;;;;;;;;;;5123924;27;20892;-67
2022/08/30 02:25:58;;;;;;;12.23;10.93;;;;;;;;;;5108223;27;20238;-66
2022/08/30 02:28:25;;;;;;;11.93;10.70;;;;;;;;;;5112458;27;20619;-66
2022/08/30 02:30:53;;;;;;;11.30;10.18;;;;;;;;;;5120819;27;20219;-67
2022/08/30 02:33:20;;;;;;;11.63;10.43;;;;;;;;;;5100501;27;20212;-66
2022/08/30 02:35:48;;;;;;;11.55;10.35;;;;;;;;;;5104102;27;20256;-65
2022/08/30 02:38:15;;;;;;;13.52;10.88;;;;;;;;;;5103793;27;20815;-66
2022/08/30 02:40:46;;;;;;;12.55;11.02;;;;;;;;;;5109115;27;20261;-66
2022/08/30 02:43:14;;;;;;;12.02;10.50;;;;;;;;;;5107370;27;20200;-66
2022/08/30 02:45:42;;;;;;;14.52;10.57;;;;;;;;;;5106047;28;20204;-66
2022/08/30 02:48:09;;;;;;;11.63;10.43;;;;;;;;;;5113055;27;20218;-67
2022/08/30 02:50:41;;;;;;;13.82;11.25;;;;;;;;;;5102612;27;20211;-67
2022/08/30 02:53:09;;;;;;;11.20;10.10;;;;;;;;;;5107658;27;20195;-65
2022/08/30 02:55:42;;;;;;;11.23;10.23;;;;;;;;;;5104003;27;20582;-65
2022/08/30 02:58:09;;;;;;;11.30;10.20;;;;;;;;;;5109012;27;20238;-66
2022/08/30 03:00:38;;;;;;;11.52;10.40;;;;;;;;;;5127991;27;20251;-67
2022/08/30 03:03:06;;;;;;;11.50;9.95;;;;;;;;;;5116148;27;20256;-67
2022/08/30 03:05:34;;;;;;;11.75;10.52;;;;;;;;;;5103662;28;20748;-66
2022/08/30 03:08:06;;;;;;;10.85;9.23;;;;;;;;;;5124284;27;20214;-65
2022/08/30 03:10:33;;;;;;;10.13;9.13;;;;;;;;;;5133652;27;20194;-66
2022/08/30 03:13:01;;;;;;;11.20;9.90;;;;;;;;;;5108066;28;20657;-66
2022/08/30 03:15:28;;;;;;;11.63;9.87;;;;;;;;;;5096945;27;20208;-67
2022/08/30 03:17:56;;;;;;;11.52;10.43;;;;;;;;;;5104958;27;20249;-66
2022/08/30 03:20:24;;;;;;;11.63;10.43;;;;;;;;;;5128209;27;20200;-65
2022/08/30 03:22:51;;;;;;;12.37;10.60;;;;;;;;;;5107410;27;20635;-67
2022/08/30 03:25:22;;;;;;;11.97;10.33;;;;;;;;;;5098875;27;20210;-64
2022/08/30 03:27:49;;;;;;;13.48;10.43;;;;;;;;;;5096058;27;20736;-67
2022/08/30 03:30:18;;;;;;;12.40;10.50;;;;;;;;;;5109392;27;20203;-66
2022/08/30 03:32:46;;;;;;;11.65;10.48;;;;;;;;;;5099485;27;20683;-66
2022/08/30 03:35:14;;;;;;;11.83;10.73;;;;;;;;;;5104771;27;20207;-67
2022/08/30 03:37:42;;;;;;;12.60;11.20;;;;;;;;;;5127376;27;20388;-66
2022/08/30 03:40:10;;;;;;;12.67;10.93;;;;;;;;;;5110609;27;20628;-67
2022/08/30 03:42:37;;;;;;;12.37;11.13;;;;;;;;;;5106491;27;20258;-66
2022/08/30 03:45:09;;;;;;;12.43;11.10;;;;;;;;;;5108642;27;20207;-65
2022/08/30 03:47:37;;;;;;;12.20;10.97;;;;;;;;;;5106878;27;20265;-65
2022/08/30 03:50:08;;;;;;;12.33;11.03;;;;;;;;;;5124886;27;20211;-67
2022/08/30 03:52:35;;;;;;;12.00;10.70;;;;;;;;;;5114859;27;20621;-65
2022/08/30 03:55:03;;;;;;;11.47;10.33;;;;;;;;;;5113279;27;20238;-66
2022/08/30 03:57:31;;;;;;;11.50;10.40;;;;;;;;;;5129335;27;20231;-65
2022/08/30 04:00:00;;;;;;;11.30;10.07;;;;;;;;;;5115590;27;20319;-66
2022/08/30 04:02:28;;;;;;;12.48;11.27;;;;;;;;;;5117495;27;20219;-66
2022/08/30 04:04:55;;;;;;;13.13;9.93;;;;;;;;;;5114955;27;20207;-66
2022/08/30 04:07:22;;;;;;;15.60;11.80;;;;;;;;;;5112537;27;20576;-66
2022/08/30 04:09:50;;;;;;;11.47;10.37;;;;;;;;;;5116942;27;20203;-66
2022/08/30 04:12:17;;;;;;;12.67;9.50;;;;;;;;;;5132702;27;20693;-65
2022/08/30 04:14:49;;;;;;;10.30;9.30;;;;;;;;;;5104010;27;20215;-66
2022/08/30 04:17:16;;;;;;;16.50;10.53;;;;;;;;;;5126193;27;20489;-66
2022/08/30 04:19:44;;;;;;;11.57;10.40;;;;;;;;;;5105792;27;20204;-66
2022/08/30 04:22:11;;;;;;;12.23;11.03;;;;;;;;;;5107347;27;20299;-66
2022/08/30 04:24:40;;;;;;;13.87;11.30;;;;;;;;;;5139363;27;20192;-66
2022/08/30 04:27:08;;;;;;;13.33;11.23;;;;;;;;;;5115658;27;20207;-67
2022/08/30 04:29:35;;;;;;;12.43;11.23;;;;;;;;;;5108132;27;20274;-67
2022/08/30 04:32:03;;;;;;;12.37;11.07;;;;;;;;;;5116526;27;20235;-65
2022/08/30 04:34:30;;;;;;;12.10;10.90;;;;;;;;;;5097841;27;20203;-65
2022/08/30 04:36:58;;;;;;;11.87;10.10;;;;;;;;;;5103308;27;20224;-66
2022/08/30 04:39:25;;;;;;;12.07;10.53;;;;;;;;;;5108600;27;20676;-67
2022/08/30 04:41:54;;;;;;;12.77;11.57;;;;;;;;;;5125177;27;20660;-65
2022/08/30 04:44:22;;;;;;;12.30;11.10;;;;;;;;;;5109455;27;20200;-66
2022/08/30 04:46:49;;;;;;;12.57;11.37;;;;;;;;;;5106766;27;20676;-66
2022/08/30 04:49:16;;;;;;;12.67;11.47;;;;;;;;;;5106613;27;20935;-66
2022/08/30 04:51:44;;;;;;;12.10;10.90;;;;;;;;;;5111974;27;20288;-65
2022/08/30 04:54:11;;;;;;;14.10;11.47;;;;;;;;;;5104925;27;20252;-66
2022/08/30 04:56:39;;;;;;;12.90;11.27;;;;;;;;;;5121055;27;20197;-66
2022/08/30 04:59:06;;;;;;;11.87;10.27;;;;;;;;;;5109468;27;20268;-66
2022/08/30 05:01:33;;;;;;;15.27;11.57;;;;;;;;;;5107255;27;20223;-66
2022/08/30 05:04:11;;;;;;;29.40;11.80;;;;;;;;;;5112193;27;20582;-66
2022/08/30 05:06:38;;;;;;;34.77;11.17;;;;;;;;;;5116933;27;20208;-65
2022/08/30 05:09:06;;;;;;;15.70;10.83;;;;;;;;;;5109692;27;20294;-67
2022/08/30 05:11:33;;;;;;;18.33;11.20;;;;;;;;;;5104671;27;20231;-67
2022/08/30 05:14:00;;;;;;;20.83;10.97;;;;;;;;;;5110093;27;20672;-66
2022/08/30 05:16:27;;;;;;;13.17;10.10;;;;;;;;;;5113640;27;20222;-67
2022/08/30 05:18:55;;;;;;;17.60;10.97;;;;;;;;;;5106097;27;20272;-66
2022/08/30 05:21:25;;;;;;;14.73;10.70;;;;;;;;;;5095929;27;20224;-65
2022/08/30 05:23:53;;;;;;;17.20;10.40;;;;;;;;;;5100889;27;20200;-66
2022/08/30 05:26:22;;;;;;;18.30;11.32;;;;;;;;;;5103900;27;20235;-66
2022/08/30 05:28:51;;;;;;;15.48;10.68;;;;;;;;;;5107075;27;20574;-66
2022/08/30 05:31:23;;;;;;;14.57;10.57;;;;;;;;;;5128707;27;20295;-66
2022/08/30 05:33:51;;;;;;;14.25;10.10;;;;;;;;;;5106882;27;20657;-66
2022/08/30 05:36:19;;;;;;;12.60;10.25;;;;;;;;;;5116718;27;20703;-67
2022/08/30 05:38:47;;;;;;;13.80;11.10;;;;;;;;;;5117929;27;20235;-66
2022/08/30 05:41:15;;;;;;;14.10;11.63;;;;;;;;;;5109082;27;20275;-67
2022/08/30 05:43:43;;;;;;;12.85;11.55;;;;;;;;;;5110140;27;20522;-65
2022/08/30 05:46:11;;;;;;;15.65;12.68;;;;;;;;;;5130717;27;20207;-68
2022/08/30 05:48:39;;;;;;;14.27;12.27;;;;;;;;;;5105804;27;20234;-66
2022/08/30 05:51:10;;;;;;;13.27;11.88;;;;;;;;;;5111967;27;20250;-67
2022/08/30 05:53:38;;;;;;;15.82;12.50;;;;;;;;;;5111310;27;20722;-67
2022/08/30 05:56:07;;;;;;;13.82;12.43;;;;;;;;;;5109657;27;20272;-66
2022/08/30 05:58:34;;;;;;;13.80;12.30;;;;;;;;;;5103702;27;20220;-66
2022/08/30 06:01:02;;;;;;;13.38;12.07;;;;;;;;;;5106366;27;20222;-67
2022/08/30 06:03:31;;;;;;;13.35;11.95;;;;;;;;;;5108191;27;20652;-66
2022/08/30 06:05:59;;;;;;;12.70;11.40;;;;;;;;;;5104397;27;20199;-65
2022/08/30 06:08:27;;;;;;;14.65;12.45;;;;;;;;;;5110198;27;20211;-65
2022/08/30 06:10:54;;;;;;;18.80;12.52;;;;;;;;;;5118175;27;20245;-67
2022/08/30 06:13:22;;;;;;;18.02;11.88;;;;;;;;;;5103561;27;20226;-67
2022/08/30 06:15:51;;;;;;;20.95;12.48;;;;;;;;;;5101714;27;20689;-66
2022/08/30 06:18:18;;;;;;;18.20;12.48;;;;;;;;;;5111634;27;20225;-66
2022/08/30 06:20:54;;;;;;;18.88;12.45;;;;;;;;;;5113089;27;20218;-66
2022/08/30 06:23:22;;;;;;;33.88;11.88;;;;;;;;;;5102715;27;20238;-66
2022/08/30 06:25:50;;;;;;;31.67;13.30;;;;;;;;;;5112278;27;20219;-66
2022/08/30 06:28:17;;;;;;;52.22;14.43;;;;;;;;;;5103323;27;20200;-66
2022/08/30 06:30:44;;;;;;;39.13;14.23;;;;;;;;;;5114683;27;20732;-67
2022/08/30 06:33:12;;;;;;;35.83;12.98;;;;;;;;;;5103426;27;20214;-66
2022/08/30 06:35:39;;;;;;;40.70;14.50;;;;;;;;;;5102829;27;20206;-67
2022/08/30 06:38:24;;;;;;;55.92;14.85;;;;;;;;;;5107539;27;20218;-65
2022/08/30 06:40:51;;;;;;;69.00;14.50;;;;;;;;;;5112294;27;20223;-68
2022/08/30 06:43:20;;;;;;;62.95;14.55;;;;;;;;;;5104877;27;20206;-68
2022/08/30 06:45:47;;;;;;;48.03;12.88;;;;;;;;;;5098771;27;20204;-67
2022/08/30 06:48:14;;;;;;;46.22;14.38;;;;;;;;;;5104924;27;21893;-65
2022/08/30 06:50:43;;;;;;;43.22;14.35;;;;;;;;;;5113275;27;20203;-67
2022/08/30 06:53:11;;;;;;;37.70;13.30;;;;;;;;;;5098858;27;20207;-66
2022/08/30 06:55:38;;;;;;;27.35;11.40;;;;;;;;;;5102261;27;20624;-66
2022/08/30 06:58:06;;;;;;;31.15;13.55;;;;;;;;;;5106016;27;20268;-66
2022/08/30 07:00:33;;;;;;;36.65;13.73;;;;;;;;;;5103151;27;20199;-66
2022/08/30 07:03:02;;;;;;;30.05;12.75;;;;;;;;;;5096078;27;20208;-65
2022/08/30 07:05:30;;;;;;;27.20;10.95;;;;;;;;;;5102040;27;20204;-66
2022/08/30 07:07:57;;;;;;;35.20;12.18;;;;;;;;;;5094824;27;20207;-68
2022/08/30 07:10:25;;;;;;;29.23;12.00;;;;;;;;;;5093501;27;20211;-67
2022/08/30 07:12:52;;;;;;;30.83;11.30;;;;;;;;;;5103377;27;20234;-66
2022/08/30 07:15:21;;;;;;;34.72;11.48;;;;;;;;;;5109308;27;20207;-66
2022/08/30 07:20:37;;;;;;;12.30;9.30;;;;;;;;;;5118979;27;20343;-67
2022/08/30 07:23:07;;;;;;;9.48;8.57;;;;;;;;;;5116033;28;20195;-65
2022/08/30 07:25:35;;;;;;;9.20;8.30;;;;;;;;;;5104516;27;20715;-67
2022/08/30 07:28:04;;;;;;;8.68;7.88;;;;;;;;;;5103284;27;20256;-65
2022/08/30 07:30:31;;;;;;;8.77;7.93;;;;;;;;;;5111949;28;20207;-67
2022/08/30 07:32:59;;;;;;;8.57;7.78;;;;;;;;;;5103474;27;20203;-67
2022/08/30 07:35:27;;;;;;;8.88;7.88;;;;;;;;;;5111069;27;20628;-66
2022/08/30 07:37:54;;;;;;;8.65;7.82;;;;;;;;;;5105513;27;20288;-65
2022/08/30 07:40:21;;;;;;;8.75;7.50;;;;;;;;;;5117235;27;20203;-66
2022/08/30 07:42:49;;;;;;;9.23;7.57;;;;;;;;;;5108225;27;20585;-67
2022/08/30 07:45:17;;;;;;;8.75;7.65;;;;;;;;;;5101765;27;20321;-65
2022/08/30 07:47:44;;;;;;;8.73;7.82;;;;;;;;;;5116084;27;20207;-66
2022/08/30 07:50:12;;;;;;;7.72;7.03;;;;;;;;;;5112298;28;20192;-67
2022/08/30 07:52:39;;;;;;;8.45;7.65;;;;;;;;;;5104144;27;20632;-67
2022/08/30 07:55:08;;;;;;;8.23;7.43;;;;;;;;;;5124056;27;20248;-67
2022/08/30 07:57:36;;;;;;;8.90;7.32;;;;;;;;;;5099336;27;20210;-66
2022/08/30 08:00:05;;;;;;;7.03;6.32;;;;;;;;;;5100366;27;20196;-68
2022/08/30 08:02:32;;;;;;;7.55;6.88;;;;;;;;;;5106271;28;20212;-65
2022/08/30 08:05:00;;;;;;;7.25;6.63;;;;;;;;;;5094788;27;20745;-67
2022/08/30 08:07:27;;;;;;;7.10;6.50;;;;;;;;;;5103214;27;20293;-65
2022/08/30 08:09:54;;;;;;;7.68;6.97;;;;;;;;;;5105605;27;20204;-65
2022/08/30 08:12:22;;;;;;;8.02;6.68;;;;;;;;;;5101539;27;20227;-65
2022/08/30 08:14:49;;;;;;;7.10;6.40;;;;;;;;;;5115683;27;20673;-66
2022/08/30 08:17:16;;;;;;;7.13;6.50;;;;;;;;;;5124854;27;20204;-66
2022/08/30 08:19:44;;;;;;;7.43;6.32;;;;;;;;;;5107084;27;20268;-67
2022/08/30 08:22:11;;;;;;;7.13;6.47;;;;;;;;;;5114837;27;20697;-66
2022/08/30 08:24:47;;;;;;;7.00;6.30;;;;;;;;;;5114032;27;20227;-65
2022/08/30 08:27:15;;;;;;;6.70;6.05;;;;;;;;;;5109398;27;20664;-67
2022/08/30 08:29:43;;;;;;;7.03;6.18;;;;;;;;;;5123523;27;20196;-66
2022/08/30 08:32:10;;;;;;;6.07;5.40;;;;;;;;;;5115204;27;20223;-65
2022/08/30 08:34:38;;;;;;;5.85;5.35;;;;;;;;;;5112404;27;20657;-65
2022/08/30 08:37:05;;;;;;;6.20;5.38;;;;;;;;;;5108201;27;20208;-64
2022/08/30 08:39:33;;;;;;;6.10;5.60;;;;;;;;;;5107130;27;20728;-66
2022/08/30 08:42:03;;;;;;;6.05;5.38;;;;;;;;;;5108364;27;20265;-67
2022/08/30 08:44:40;;;;;;;6.75;5.75;;;;;;;;;;5113778;27;20207;-67
2022/08/30 08:47:37;;;;;;;5.40;4.90;;;;;;;;;;5110914;27;20410;-66
2022/08/30 08:50:08;;;;;;;5.30;4.80;;;;;;;;;;5095428;27;20195;-66
2022/08/30 08:56:04;;;;;;;4.95;4.35;;;;;;;;;;5120246;27;20204;-67
2022/08/30 08:58:42;;;;;;;4.70;4.28;;;;;;;;;;5107671;27;20749;-67
2022/08/30 09:01:12;;;;;;;5.63;4.72;;;;;;;;;;5108462;27;20351;-67
2022/08/30 09:03:39;;;;;;;5.00;4.57;;;;;;;;;;5118196;27;20200;-67
2022/08/30 09:06:22;;;;;;;6.05;4.88;;;;;;;;;;5114286;27;20200;-65
2022/08/30 09:08:50;;;;;;;5.22;4.80;;;;;;;;;;5109979;27;20295;-66
2022/08/30 09:11:21;;;;;;;6.35;4.72;;;;;;;;;;5105055;27;20227;-66
2022/08/30 09:13:53;;;;;;;5.55;5.00;;;;;;;;;;5119126;27;20237;-67
2022/08/30 09:16:39;;;;;;;6.22;4.70;;;;;;;;;;5101801;27;20203;-66
2022/08/30 09:19:07;;;;;;;4.90;4.50;;;;;;;;;;5118464;27;20219;-66
2022/08/30 09:21:34;;;;;;;5.18;4.60;;;;;;;;;;5105654;27;20210;-66
2022/08/30 09:24:03;;;;;;;4.78;4.00;;;;;;;;;;5103410;27;20222;-66
2022/08/30 09:26:35;;;;;;;4.60;4.20;;;;;;;;;;5120040;27;20235;-66
2022/08/30 09:29:04;;;;;;;7.68;4.43;;;;;;;;;;5105961;27;20211;-65
2022/08/30 09:31:33;;;;;;;4.93;4.47;;;;;;;;;;5119656;27;20220;-65
2022/08/30 09:34:02;;;;;;;4.97;4.15;;;;;;;;;;5124542;27;20752;-66
2022/08/30 09:36:41;;;;;;;8.05;4.28;;;;;;;;;;5122062;27;20205;-66
2022/08/30 09:39:16;;;;;;;7.65;4.80;;;;;;;;;;5107314;27;20242;-66
2022/08/30 09:41:47;;;;;;;5.32;4.47;;;;;;;;;;5110595;27;20276;-66
2022/08/30 09:44:29;;;;;;;4.82;4.32;;;;;;;;;;5108369;27;20210;-65
2022/08/30 09:46:58;;;;;;;7.80;4.38;;;;;;;;;;5106931;27;20664;-65
2022/08/30 09:49:31;;;;;;;4.40;4.00;;;;;;;;;;5117568;27;20204;-67
2022/08/30 09:52:11;;;;;;;4.50;4.00;;;;;;;;;;5124128;27;20227;-66
2022/08/30 09:54:44;;;;;;;4.57;4.25;;;;;;;;;;5114366;27;20199;-66
2022/08/30 09:57:21;;;;;;;5.05;3.63;;;;;;;;;;5102965;27;20268;-65
2022/08/30 10:00:14;;;;;;;3.88;3.58;;;;;;;;;;5129802;27;20692;-67
2022/08/30 10:02:56;;;;;;;4.22;3.90;;;;;;;;;;5126085;27;20234;-68
2022/08/30 10:05:36;;;;;;;4.47;3.80;;;;;;;;;;5109082;27;20200;-69
2022/08/30 10:08:09;;;;;;;4.40;4.00;;;;;;;;;;5102717;27;20945;-64
2022/08/30 10:10:48;;;;;;;4.28;3.97;;;;;;;;;;5105274;27;20208;-66
2022/08/30 10:13:16;;;;;;;5.10;3.80;;;;;;;;;;5103818;27;20207;-66
2022/08/30 10:16:10;;;;;;;5.13;4.03;;;;;;;;;;5110882;27;20203;-66
2022/08/30 10:18:43;;;;;;;4.28;3.88;;;;;;;;;;5100428;27;20238;-66
2022/08/30 10:21:31;;;;;;;5.35;3.80;;;;;;;;;;5105785;27;20219;-66
2022/08/30 10:24:07;;;;;;;6.10;3.95;;;;;;;;;;5124241;27;20224;-67
2022/08/30 10:26:37;;;;;;;3.60;3.30;;;;;;;;;;5103579;27;20285;-65
2022/08/30 10:29:09;;;;;;;3.65;3.30;;;;;;;;;;5102026;27;20203;-65
2022/08/30 10:31:48;;;;;;;3.97;3.65;;;;;;;;;;5104101;27;20713;-67
2022/08/30 10:34:19;;;;;;;3.90;3.60;;;;;;;;;;5107528;27;20207;-67
2022/08/30 10:36:57;;;;;;;4.03;3.47;;;;;;;;;;5087813;27;20216;-66
2022/08/30 10:39:28;;;;;;;4.13;3.78;;;;;;;;;;5086826;27;20220;-65
2022/08/30 10:42:04;;;;;;;3.95;3.65;;;;;;;;;;5087904;27;20282;-66
2022/08/30 10:44:35;;;;;;;4.45;4.03;;;;;;;;;;5091110;27;20208;-66
2022/08/30 10:47:14;;;;;;;4.53;3.90;;;;;;;;;;5087587;27;20208;-66
2022/08/30 10:50:00;;;;;;;4.28;3.80;;;;;;;;;;5072465;27;20207;-68
2022/08/30 10:52:36;;;;;;;4.22;3.72;;;;;;;;;;5103752;27;20211;-66
2022/08/30 10:55:10;;;;;;;4.22;3.70;;;;;;;;;;5115763;27;20248;-66
2022/08/30 10:57:38;;;;;;;4.30;3.50;;;;;;;;;;5125399;27;20429;-65
2022/08/30 11:00:12;;;;;;;4.75;3.75;;;;;;;;;;5112851;27;20227;-66
2022/08/30 11:02:56;;;;;;;4.40;3.40;;;;;;;;;;5092136;27;20718;-65
2022/08/30 11:05:43;;;;;;;4.20;3.63;;;;;;;;;;5095818;28;20295;-65
2022/08/30 11:08:40;;;;;;;6.72;3.55;;;;;;;;;;5109818;27;20248;-67
2022/08/30 11:11:20;;;;;;;4.45;3.97;;;;;;;;;;5095414;28;20219;-67
2022/08/30 11:13:48;;;;;;;4.10;3.80;;;;;;;;;;5102475;27;20200;-66
2022/08/30 11:16:18;;;;;;;4.13;3.83;;;;;;;;;;5109899;27;20202;-65
2022/08/30 11:18:46;;;;;;;3.80;3.50;;;;;;;;;;5104980;28;20694;-66
2022/08/30 11:21:21;;;;;;;4.00;3.70;;;;;;;;;;5107354;27;20223;-66
2022/08/30 11:23:58;;;;;;;4.53;3.88;;;;;;;;;;5111379;27;20195;-66
2022/08/30 11:26:44;;;;;;;4.07;3.75;;;;;;;;;;5112184;27;20195;-65
2022/08/30 11:29:26;;;;;;;4.60;3.70;;;;;;;;;;5108324;27;20212;-67
2022/08/30 11:31:55;;;;;;;4.82;3.80;;;;;;;;;;5117718;27;20219;-66
2022/08/30 11:34:41;;;;;;;4.47;3.72;;;;;;;;;;5105163;27;20665;-66
2022/08/30 11:37:09;;;;;;;5.10;3.78;;;;;;;;;;5133542;27;20195;-65
2022/08/30 11:39:48;;;;;;;6.15;4.22;;;;;;;;;;5111987;28;20227;-65
2022/08/30 11:42:19;;;;;;;5.63;4.10;;;;;;;;;;5108913;27;20294;-66
2022/08/30 11:44:46;;;;;;;4.00;3.70;;;;;;;;;;5114216;27;20298;-65
2022/08/30 11:47:32;;;;;;;5.90;3.75;;;;;;;;;;5122783;27;20217;-65
2022/08/30 11:50:13;;;;;;;5.43;3.70;;;;;;;;;;5116674;27;20200;-65
2022/08/30 11:52:59;;;;;;;5.20;3.72;;;;;;;;;;5108502;28;20220;-65
2022/08/30 11:55:39;;;;;;;4.75;4.00;;;;;;;;;;5122440;27;20594;-66
2022/08/30 11:58:18;;;;;;;4.10;3.80;;;;;;;;;;5126469;27;20273;-67
2022/08/30 12:00:46;;;;;;;4.03;3.67;;;;;;;;;;5112109;27;20223;-66
2022/08/30 12:03:20;;;;;;;6.68;3.97;;;;;;;;;;5113006;27;20203;-66
2022/08/30 12:06:17;;;;;;;5.63;3.90;;;;;;;;;;5100657;27;20605;-66
2022/08/30 12:08:47;;;;;;;5.43;3.70;;;;;;;;;;5101726;27;20672;-65
2022/08/30 12:11:14;;;;;;;4.47;4.07;;;;;;;;;;5117328;27;20216;-65
2022/08/30 12:13:42;;;;;;;5.40;3.92;;;;;;;;;;5114602;27;20339;-67
2022/08/30 12:16:13;;;;;;;4.95;3.45;;;;;;;;;;5098397;27;20223;-66
2022/08/30 12:18:59;;;;;;;4.40;4.10;;;;;;;;;;5114228;27;20290;-64
2022/08/30 12:21:29;;;;;;;4.45;3.85;;;;;;;;;;5115532;27;20716;-66
2022/08/30 12:24:19;;;;;;;4.00;3.70;;;;;;;;;;5123553;27;20191;-66
2022/08/30 12:26:48;;;;;;;6.38;4.28;;;;;;;;;;5108187;27;20588;-66
2022/08/30 12:29:18;;;;;;;4.20;3.85;;;;;;;;;;5112687;27;20804;-66
2022/08/30 12:31:52;;;;;;;4.55;3.75;;;;;;;;;;5114058;27;20224;-67
2022/08/30 12:34:24;;;;;;;4.53;4.13;;;;;;;;;;5126153;27;20268;-67
2022/08/30 12:36:54;;;;;;;6.35;4.13;;;;;;;;;;5108706;27;20304;-65
2022/08/30 12:39:23;;;;;;;5.85;4.13;;;;;;;;;;5135271;27;20223;-66
2022/08/30 12:41:52;;;;;;;5.13;4.53;;;;;;;;;;5127468;27;20224;-65
2022/08/30 12:44:24;;;;;;;5.53;4.20;;;;;;;;;;5112956;27;20260;-66
2022/08/30 12:46:56;;;;;;;5.10;3.85;;;;;;;;;;5113456;27;20656;-65
2022/08/30 12:49:28;;;;;;;5.25;4.47;;;;;;;;;;5112585;27;20211;-67
2022/08/30 12:51:56;;;;;;;5.40;3.88;;;;;;;;;;5107857;27;20233;-64
2022/08/30 12:54:29;;;;;;;6.72;4.45;;;;;;;;;;5116714;27;20203;-65
2022/08/30 12:56:56;;;;;;;5.82;4.60;;;;;;;;;;5108961;27;20207;-65
2022/08/30 12:59:47;;;;;;;4.10;3.80;;;;;;;;;;5110085;27;20259;-67
2022/08/30 13:02:25;;;;;;;3.97;3.60;;;;;;;;;;5110110;27;20219;-66
2022/08/30 13:04:54;;;;;;;4.38;4.00;;;;;;;;;;5103258;27;20207;-65
2022/08/30 13:07:29;;;;;;;5.07;4.10;;;;;;;;;;5117114;27;20265;-65
2022/08/30 13:10:05;;;;;;;4.72;4.30;;;;;;;;;;5112035;27;20207;-65
2022/08/30 13:12:34;;;;;;;4.22;3.83;;;;;;;;;;5110921;27;20723;-65
2022/08/30 13:15:28;;;;;;;3.97;3.60;;;;;;;;;;5117686;27;20204;-65
2022/08/30 13:18:17;;;;;;;4.30;3.90;;;;;;;;;;5109145;27;20216;-66
2022/08/30 13:21:09;;;;;;;3.80;3.45;;;;;;;;;;5105287;27;20231;-65
2022/08/30 13:23:36;;;;;;;4.97;4.03;;;;;;;;;;5103722;27;20199;-65
2022/08/30 13:26:08;;;;;;;4.13;3.83;;;;;;;;;;5108229;27;20208;-65
2022/08/30 13:28:49;;;;;;;8.38;4.40;;;;;;;;;;5112252;27;20230;-66
2022/08/30 13:31:18;;;;;;;4.70;4.13;;;;;;;;;;5114443;27;20481;-67
2022/08/30 13:33:51;;;;;;;3.95;3.58;;;;;;;;;;5105958;27;20217;-65
2022/08/30 13:36:24;;;;;;;4.30;4.00;;;;;;;;;;5115236;27;20289;-65
2022/08/30 13:38:51;;;;;;;4.50;3.60;;;;;;;;;;5108571;27;20215;-66
2022/08/30 13:41:20;;;;;;;5.57;3.92;;;;;;;;;;5108650;27;20280;-67
2022/08/30 13:43:47;;;;;;;4.47;4.07;;;;;;;;;;5112867;27;20220;-67
2022/08/30 13:46:35;;;;;;;4.18;3.85;;;;;;;;;;5104059;27;20199;-65
2022/08/30 13:49:08;;;;;;;4.22;3.80;;;;;;;;;;5109645;27;20752;-66
2022/08/30 13:51:55;;;;;;;6.55;4.07;;;;;;;;;;5122121;27;20215;-65
2022/08/30 13:54:42;;;;;;;5.00;4.00;;;;;;;;;;5113168;27;20560;-66
2022/08/30 13:57:10;;;;;;;5.60;4.00;;;;;;;;;;5117889;27;20710;-65
2022/08/30 13:59:37;;;;;;;5.38;4.47;;;;;;;;;;5106893;27;20228;-65
2022/08/30 14:02:05;;;;;;;4.57;4.18;;;;;;;;;;5132552;27;20238;-65
2022/08/30 14:04:34;;;;;;;4.32;4.03;;;;;;;;;;5108953;27;20201;-66
2022/08/30 14:07:02;;;;;;;4.65;3.88;;;;;;;;;;5110900;27;20216;-66
2022/08/30 14:09:47;;;;;;;4.63;4.22;;;;;;;;;;5114344;27;20203;-65
2022/08/30 14:12:14;;;;;;;4.55;4.20;;;;;;;;;;5112288;27;20586;-65
2022/08/30 14:15:02;;;;;;;4.25;3.95;;;;;;;;;;5116616;27;20571;-65
2022/08/30 14:17:31;;;;;;;4.40;4.00;;;;;;;;;;5117136;27;20245;-68
2022/08/30 14:19:58;;;;;;;4.18;3.78;;;;;;;;;;5104571;27;20215;-65
2022/08/30 14:22:26;;;;;;;4.70;3.92;;;;;;;;;;5105530;27;20215;-65
2022/08/30 14:24:53;;;;;;;4.80;4.38;;;;;;;;;;5103767;27;20223;-66
2022/08/30 14:27:21;;;;;;;4.65;4.05;;;;;;;;;;5118508;27;21837;-66
2022/08/30 14:29:53;;;;;;;4.05;3.63;;;;;;;;;;5104015;27;20258;-64
2022/08/30 14:32:20;;;;;;;4.30;3.90;;;;;;;;;;5122555;27;20223;-66
2022/08/30 14:34:48;;;;;;;4.65;4.18;;;;;;;;;;5110431;27;20203;-65
2022/08/30 14:37:17;;;;;;;5.93;3.97;;;;;;;;;;5109479;27;20787;-66
2022/08/30 14:39:45;;;;;;;5.63;4.22;;;;;;;;;;5107211;27;20261;-66
2022/08/30 14:42:13;;;;;;;4.30;3.90;;;;;;;;;;5110765;27;20232;-65
2022/08/30 14:44:45;;;;;;;4.18;3.88;;;;;;;;;;5098523;27;20200;-67
2022/08/30 14:47:23;;;;;;;8.10;4.57;;;;;;;;;;5095435;27;21990;-67
2022/08/30 14:49:59;;;;;;;10.18;4.90;;;;;;;;;;5107029;27;20553;-66
2022/08/30 14:52:30;;;;;;;4.43;3.85;;;;;;;;;;5099837;27;20230;-65
2022/08/30 14:54:58;;;;;;;6.53;4.40;;;;;;;;;;5099745;27;20700;-65
2022/08/30 14:57:34;;;;;;;4.95;4.53;;;;;;;;;;5105802;27;20202;-67
2022/08/30 15:00:05;;;;;;;5.18;4.68;;;;;;;;;;5102822;27;20579;-65
2022/08/30 15:02:33;;;;;;;4.97;4.40;;;;;;;;;;5101928;27;20223;-65